createdAt,value
2018-04-18T00:00:40.126Z,1025.02
2018-04-18T00:01:40.187Z,1024.99
2018-04-18T00:02:40.262Z,1025.01
2018-04-18T00:03:40.323Z,1025.02
2018-04-18T00:04:40.691Z,1024.97
2018-04-18T00:05:40.444Z,1025.02
2018-04-18T00:06:40.509Z,1025.03
2018-04-18T00:07:40.583Z,1025.05
2018-04-18T00:08:40.635Z,1025.06
2018-04-18T00:09:40.711Z,1025.05
2018-04-18T00:10:40.770Z,1025.07
2018-04-18T00:11:40.827Z,1025.10
2018-04-18T00:12:40.891Z,1025.10
2018-04-18T00:13:40.955Z,1025.10
2018-04-18T00:14:41.027Z,1025.13
2018-04-18T00:15:41.095Z,1025.11
2018-04-18T00:16:41.147Z,1025.12
2018-04-18T00:17:41.211Z,1025.17
2018-04-18T00:18:41.276Z,1025.17
2018-04-18T00:19:41.356Z,1025.16
2018-04-18T00:20:41.404Z,1025.16
2018-04-18T00:21:41.467Z,1025.16
2018-04-18T00:22:41.531Z,1025.18
2018-04-18T00:23:41.599Z,1025.20
2018-04-18T00:24:41.668Z,1025.22
2018-04-18T00:25:41.740Z,1025.20
2018-04-18T00:26:41.788Z,1025.21
2018-04-18T00:27:41.852Z,1025.25
2018-04-18T00:28:41.920Z,1025.23
2018-04-18T00:29:41.987Z,1025.25
2018-04-18T00:30:42.052Z,1025.21
2018-04-18T00:31:42.108Z,1025.21
2018-04-18T00:32:42.172Z,1025.23
2018-04-18T00:33:42.236Z,1025.22
2018-04-18T00:35:08.324Z,1025.22
2018-04-18T00:35:42.363Z,1025.21
2018-04-18T00:36:42.428Z,1025.23
2018-04-18T00:37:42.492Z,1025.19
2018-04-18T00:38:42.556Z,1025.24
2018-04-18T00:39:42.628Z,1025.25
2018-04-18T00:40:42.692Z,1025.25
2018-04-18T00:41:42.748Z,1025.27
2018-04-18T00:42:42.813Z,1025.25
2018-04-18T00:43:42.881Z,1025.21
2018-04-18T00:44:42.945Z,1025.22
2018-04-18T00:45:43.009Z,1025.22
2018-04-18T00:46:43.065Z,1025.22
2018-04-18T00:47:43.133Z,1025.24
2018-04-18T00:48:43.197Z,1025.22
2018-04-18T00:49:43.419Z,1025.26
2018-04-18T00:50:43.321Z,1025.23
2018-04-18T00:51:43.385Z,1025.24
2018-04-18T00:52:43.449Z,1025.27
2018-04-18T00:53:43.513Z,1025.27
2018-04-18T00:54:43.585Z,1025.27
2018-04-18T00:55:43.651Z,1025.26
2018-04-18T00:56:43.706Z,1025.29
2018-04-18T00:57:43.778Z,1025.25
2018-04-18T00:58:43.842Z,1025.24
2018-04-18T00:59:43.906Z,1025.27
2018-04-18T01:00:43.966Z,1025.27
2018-04-18T01:01:44.026Z,1025.24
2018-04-18T01:02:44.089Z,1025.25
2018-04-18T01:03:44.158Z,1025.31
2018-04-18T01:04:44.233Z,1025.26
2018-04-18T01:05:44.278Z,1025.27
2018-04-18T01:06:44.343Z,1025.28
2018-04-18T01:07:44.406Z,1025.28
2018-04-18T01:08:44.471Z,1025.28
2018-04-18T01:09:44.542Z,1025.30
2018-04-18T01:10:44.606Z,1025.34
2018-04-18T01:11:44.663Z,1025.32
2018-04-18T01:12:44.730Z,1025.29
2018-04-18T01:13:44.794Z,1025.30
2018-04-18T01:14:44.870Z,1025.29
2018-04-18T01:15:44.927Z,1025.28
2018-04-18T01:16:44.987Z,1025.29
2018-04-18T01:17:45.043Z,1025.33
2018-04-18T01:18:45.106Z,1025.30
2018-04-18T01:19:45.175Z,1025.31
2018-04-18T01:20:45.538Z,1025.30
2018-04-18T01:21:45.299Z,1025.29
2018-04-18T01:22:45.363Z,1025.29
2018-04-18T01:23:45.430Z,1025.28
2018-04-18T01:24:45.490Z,1025.28
2018-04-18T01:25:45.558Z,1025.30
2018-04-18T01:26:45.659Z,1025.29
2018-04-18T01:27:45.691Z,1025.29
2018-04-18T01:28:45.751Z,1025.32
2018-04-18T01:29:45.811Z,1025.31
2018-04-18T01:30:45.879Z,1025.32
2018-04-18T01:31:45.945Z,1025.32
2018-04-18T01:32:45.999Z,1025.35
2018-04-18T01:33:46.063Z,1025.42
2018-04-18T01:34:46.128Z,1025.42
2018-04-18T01:35:46.199Z,1025.38
2018-04-18T01:36:46.267Z,1025.42
2018-04-18T01:37:46.319Z,1025.42
2018-04-18T01:38:46.383Z,1025.43
2018-04-18T01:39:46.443Z,1025.44
2018-04-18T01:40:46.515Z,1025.47
2018-04-18T01:41:46.579Z,1025.50
2018-04-18T01:42:46.643Z,1025.48
2018-04-18T01:43:46.705Z,1025.48
2018-04-18T01:44:46.775Z,1025.46
2018-04-18T01:45:46.827Z,1025.49
2018-04-18T01:46:46.897Z,1025.49
2018-04-18T01:47:46.960Z,1025.52
2018-04-18T01:48:47.023Z,1025.55
2018-04-18T01:49:47.083Z,1025.55
2018-04-18T01:50:47.154Z,1025.61
2018-04-18T01:51:47.364Z,1025.62
2018-04-18T01:52:47.272Z,1025.58
2018-04-18T01:53:47.336Z,1025.58
2018-04-18T01:54:47.400Z,1025.65
2018-04-18T01:55:47.460Z,1025.62
2018-04-18T01:56:47.540Z,1025.62
2018-04-18T01:57:47.596Z,1025.66
2018-04-18T01:58:47.660Z,1025.66
2018-04-18T01:59:47.720Z,1025.67
2018-04-18T02:00:47.780Z,1025.72
2018-04-18T02:01:47.857Z,1025.71
2018-04-18T02:02:47.912Z,1025.74
2018-04-18T02:03:47.972Z,1025.76
2018-04-18T02:04:48.033Z,1025.81
2018-04-18T02:05:48.097Z,1025.80
2018-04-18T02:06:48.320Z,1025.81
2018-04-18T02:07:48.220Z,1025.84
2018-04-18T02:08:48.284Z,1025.81
2018-04-18T02:09:48.352Z,1025.84
2018-04-18T02:10:48.416Z,1025.85
2018-04-18T02:11:48.488Z,1025.86
2018-04-18T02:12:48.544Z,1025.86
2018-04-18T02:13:48.601Z,1025.84
2018-04-18T02:14:48.668Z,1025.85
2018-04-18T02:15:48.728Z,1025.86
2018-04-18T02:16:48.800Z,1025.84
2018-04-18T02:17:48.860Z,1025.87
2018-04-18T02:18:48.924Z,1025.86
2018-04-18T02:19:48.980Z,1025.87
2018-04-18T02:20:49.044Z,1025.89
2018-04-18T02:21:49.273Z,1025.87
2018-04-18T02:22:49.172Z,1025.91
2018-04-18T02:23:49.238Z,1025.92
2018-04-18T02:24:49.308Z,1025.91
2018-04-18T02:25:49.365Z,1025.93
2018-04-18T02:26:49.432Z,1025.93
2018-04-18T02:27:49.496Z,1025.90
2018-04-18T02:28:49.552Z,1025.92
2018-04-18T02:29:49.616Z,1025.92
2018-04-18T02:30:49.681Z,1025.89
2018-04-18T02:31:49.750Z,1025.90
2018-04-18T02:32:49.812Z,1025.90
2018-04-18T02:33:49.868Z,1025.91
2018-04-18T02:34:49.932Z,1025.91
2018-04-18T02:35:49.999Z,1025.90
2018-04-18T02:36:50.065Z,1025.91
2018-04-18T02:37:50.128Z,1025.94
2018-04-18T02:38:50.185Z,1025.93
2018-04-18T02:39:50.252Z,1025.93
2018-04-18T02:40:50.313Z,1025.93
2018-04-18T02:41:50.381Z,1025.96
2018-04-18T02:42:50.444Z,1025.93
2018-04-18T02:43:50.504Z,1025.93
2018-04-18T02:44:50.564Z,1025.95
2018-04-18T02:45:50.624Z,1025.96
2018-04-18T02:46:50.696Z,1025.98
2018-04-18T02:47:50.760Z,1025.99
2018-04-18T02:48:50.816Z,1026.03
2018-04-18T02:49:50.880Z,1026.01
2018-04-18T02:50:50.944Z,1026.03
2018-04-18T02:51:51.012Z,1026.05
2018-04-18T02:52:51.076Z,1026.05
2018-04-18T02:53:51.132Z,1026.07
2018-04-18T02:54:51.198Z,1026.06
2018-04-18T02:55:51.269Z,1026.11
2018-04-18T02:56:51.328Z,1026.07
2018-04-18T02:57:51.391Z,1026.09
2018-04-18T02:58:51.447Z,1026.06
2018-04-18T02:59:51.511Z,1026.11
2018-04-18T03:00:51.572Z,1026.11
2018-04-18T03:01:51.643Z,1026.14
2018-04-18T03:02:51.708Z,1026.15
2018-04-18T03:03:51.764Z,1026.14
2018-04-18T03:04:51.831Z,1026.15
2018-04-18T03:05:51.894Z,1026.21
2018-04-18T03:06:51.963Z,1026.15
2018-04-18T03:07:52.020Z,1026.18
2018-04-18T03:08:52.080Z,1026.16
2018-04-18T03:09:52.140Z,1026.17
2018-04-18T03:10:52.208Z,1026.22
2018-04-18T03:11:52.272Z,1026.19
2018-04-18T03:12:52.345Z,1026.22
2018-04-18T03:13:52.401Z,1026.21
2018-04-18T03:14:52.456Z,1026.19
2018-04-18T03:15:52.520Z,1026.23
2018-04-18T03:16:52.584Z,1026.21
2018-04-18T03:17:52.652Z,1026.23
2018-04-18T03:18:52.716Z,1026.20
2018-04-18T03:19:52.773Z,1026.21
2018-04-18T03:20:52.836Z,1026.28
2018-04-18T03:21:52.900Z,1026.26
2018-04-18T03:22:52.969Z,1026.26
2018-04-18T03:23:53.033Z,1026.29
2018-04-18T03:24:53.089Z,1026.29
2018-04-18T03:25:53.149Z,1026.28
2018-04-18T03:26:53.213Z,1026.29
2018-04-18T03:27:53.332Z,1026.29
2018-04-18T03:28:53.341Z,1026.28
2018-04-18T03:29:53.401Z,1026.30
2018-04-18T03:30:53.466Z,1026.31
2018-04-18T03:31:53.530Z,1026.32
2018-04-18T03:32:53.603Z,1026.30
2018-04-18T03:33:53.667Z,1026.33
2018-04-18T03:34:53.719Z,1026.36
2018-04-18T03:35:53.791Z,1026.35
2018-04-18T03:36:53.847Z,1026.41
2018-04-18T03:37:53.915Z,1026.38
2018-04-18T03:38:53.978Z,1026.44
2018-04-18T03:39:54.035Z,1026.43
2018-04-18T03:40:54.099Z,1026.40
2018-04-18T03:41:54.160Z,1026.43
2018-04-18T03:42:54.351Z,1026.44
2018-04-18T03:43:54.303Z,1026.46
2018-04-18T03:44:54.354Z,1026.49
2018-04-18T03:45:54.419Z,1026.51
2018-04-18T03:46:54.488Z,1026.51
2018-04-18T03:47:54.555Z,1026.49
2018-04-18T03:48:54.619Z,1026.51
2018-04-18T03:49:54.667Z,1026.50
2018-04-18T03:50:54.731Z,1026.54
2018-04-18T03:51:54.787Z,1026.54
2018-04-18T03:52:54.858Z,1026.50
2018-04-18T03:53:54.927Z,1026.49
2018-04-18T03:54:54.979Z,1026.47
2018-04-18T03:55:55.046Z,1026.49
2018-04-18T03:56:55.098Z,1026.53
2018-04-18T03:57:55.193Z,1026.54
2018-04-18T03:58:55.230Z,1026.55
2018-04-18T03:59:55.290Z,1026.57
2018-04-18T04:00:55.358Z,1026.53
2018-04-18T04:01:55.423Z,1026.56
2018-04-18T04:02:55.483Z,1026.58
2018-04-18T04:03:55.551Z,1026.56
2018-04-18T04:04:55.606Z,1026.57
2018-04-18T04:05:55.668Z,1026.57
2018-04-18T04:06:55.731Z,1026.54
2018-04-18T04:07:55.803Z,1026.54
2018-04-18T04:08:55.879Z,1026.55
2018-04-18T04:09:55.919Z,1026.55
2018-04-18T04:10:55.983Z,1026.54
2018-04-18T04:11:56.047Z,1026.57
2018-04-18T04:12:56.363Z,1026.57
2018-04-18T04:13:56.171Z,1026.51
2018-04-18T04:14:56.235Z,1026.55
2018-04-18T04:15:56.299Z,1026.59
2018-04-18T04:16:56.363Z,1026.61
2018-04-18T04:17:56.431Z,1026.59
2018-04-18T04:18:56.499Z,1026.62
2018-04-18T04:19:56.543Z,1026.62
2018-04-18T04:20:56.611Z,1026.68
2018-04-18T04:21:56.677Z,1026.65
2018-04-18T04:22:56.743Z,1026.65
2018-04-18T04:23:56.811Z,1026.69
2018-04-18T04:24:56.871Z,1026.68
2018-04-18T04:25:56.927Z,1026.70
2018-04-18T04:26:56.988Z,1026.69
2018-04-18T04:27:57.059Z,1026.67
2018-04-18T04:28:57.123Z,1026.69
2018-04-18T04:29:57.179Z,1026.72
2018-04-18T04:30:57.239Z,1026.70
2018-04-18T04:31:57.307Z,1026.69
2018-04-18T04:32:57.395Z,1026.71
2018-04-18T04:33:57.436Z,1026.72
2018-04-18T04:34:57.496Z,1026.73
2018-04-18T04:35:57.552Z,1026.73
2018-04-18T04:36:57.640Z,1026.73
2018-04-18T04:37:57.694Z,1026.74
2018-04-18T04:38:57.760Z,1026.74
2018-04-18T04:39:57.805Z,1026.80
2018-04-18T04:40:57.869Z,1026.81
2018-04-18T04:41:57.929Z,1026.76
2018-04-18T04:42:58.001Z,1026.78
2018-04-18T04:43:58.065Z,1026.82
2018-04-18T04:44:58.159Z,1026.81
2018-04-18T04:45:58.185Z,1026.80
2018-04-18T04:46:58.245Z,1026.85
2018-04-18T04:47:58.435Z,1026.84
2018-04-18T04:48:58.376Z,1026.89
2018-04-18T04:49:58.501Z,1026.90
2018-04-18T04:50:58.754Z,1026.90
2018-04-18T04:51:58.825Z,1026.91
2018-04-18T04:52:58.839Z,1026.96
2018-04-18T04:53:58.693Z,1026.95
2018-04-18T04:54:58.809Z,1026.92
2018-04-18T04:55:58.817Z,1026.95
2018-04-18T04:56:58.874Z,1026.96
2018-04-18T04:57:58.941Z,1026.99
2018-04-18T04:58:59.279Z,1026.97
2018-04-18T04:59:59.142Z,1027.00
2018-04-18T05:00:59.122Z,1026.99
2018-04-18T05:01:59.186Z,1027.02
2018-04-18T05:02:59.266Z,1027.01
2018-04-18T05:03:59.314Z,1027.03
2018-04-18T05:04:59.378Z,1027.08
2018-04-18T05:05:59.438Z,1027.07
2018-04-18T05:06:59.502Z,1027.12
2018-04-18T05:07:59.579Z,1027.09
2018-04-18T05:08:59.634Z,1027.11
2018-04-18T05:09:59.686Z,1027.12
2018-04-18T05:10:59.750Z,1027.14
2018-04-18T05:11:59.815Z,1027.16
2018-04-18T05:12:59.882Z,1027.15
2018-04-18T05:13:59.956Z,1027.17
2018-04-18T05:15:00.007Z,1027.19
2018-04-18T05:16:00.066Z,1027.23
2018-04-18T05:17:00.127Z,1027.25
2018-04-18T05:18:00.319Z,1027.21
2018-04-18T05:19:00.250Z,1027.23
2018-04-18T05:20:00.319Z,1027.25
2018-04-18T05:21:00.383Z,1027.21
2018-04-18T05:22:00.443Z,1027.21
2018-04-18T05:23:00.511Z,1027.20
2018-04-18T05:24:00.575Z,1027.24
2018-04-18T05:25:00.631Z,1027.22
2018-04-18T05:26:00.690Z,1027.22
2018-04-18T05:27:00.762Z,1027.23
2018-04-18T05:28:00.827Z,1027.24
2018-04-18T05:29:00.887Z,1027.22
2018-04-18T05:30:00.943Z,1027.26
2018-04-18T05:31:01.007Z,1027.24
2018-04-18T05:32:01.071Z,1027.29
2018-04-18T05:33:01.252Z,1027.33
2018-04-18T05:34:01.196Z,1027.37
2018-04-18T05:35:01.259Z,1027.38
2018-04-18T05:36:01.324Z,1027.41
2018-04-18T05:37:01.384Z,1027.43
2018-04-18T05:38:01.455Z,1027.46
2018-04-18T05:39:01.516Z,1027.47
2018-04-18T05:40:01.572Z,1027.47
2018-04-18T05:41:01.636Z,1027.52
2018-04-18T05:42:01.700Z,1027.51
2018-04-18T05:43:01.768Z,1027.53
2018-04-18T05:44:01.835Z,1027.51
2018-04-18T05:45:01.888Z,1027.54
2018-04-18T05:46:01.953Z,1027.58
2018-04-18T05:47:02.016Z,1027.58
2018-04-18T05:48:02.252Z,1027.59
2018-04-18T05:49:02.140Z,1027.57
2018-04-18T05:50:02.205Z,1027.61
2018-04-18T05:51:02.336Z,1027.62
2018-04-18T05:52:02.328Z,1027.60
2018-04-18T05:53:02.408Z,1027.58
2018-04-18T05:54:02.464Z,1027.63
2018-04-18T05:55:02.521Z,1027.61
2018-04-18T05:56:02.645Z,1027.61
2018-04-18T05:57:02.645Z,1027.61
2018-04-18T05:58:02.725Z,1027.62
2018-04-18T05:59:02.780Z,1027.61
2018-04-18T06:00:02.837Z,1027.63
2018-04-18T06:01:02.920Z,1027.63
2018-04-18T06:02:02.961Z,1027.59
2018-04-18T06:03:03.035Z,1027.64
2018-04-18T06:04:03.097Z,1027.63
2018-04-18T06:05:03.154Z,1027.66
2018-04-18T06:06:03.213Z,1027.69
2018-04-18T06:07:03.277Z,1027.66
2018-04-18T06:08:03.449Z,1027.69
2018-04-18T06:09:03.405Z,1027.65
2018-04-18T06:10:03.469Z,1027.71
2018-04-18T06:11:03.529Z,1027.67
2018-04-18T06:12:03.593Z,1027.68
2018-04-18T06:13:03.667Z,1027.78
2018-04-18T06:14:03.729Z,1027.72
2018-04-18T06:15:03.785Z,1027.72
2018-04-18T06:16:03.849Z,1027.73
2018-04-18T06:17:03.913Z,1027.79
2018-04-18T06:18:03.989Z,1027.79
2018-04-18T06:19:04.047Z,1027.79
2018-04-18T06:20:04.102Z,1027.82
2018-04-18T06:21:04.166Z,1027.83
2018-04-18T06:22:04.239Z,1027.83
2018-04-18T06:23:04.422Z,1027.84
2018-04-18T06:24:04.358Z,1027.84
2018-04-18T06:25:04.422Z,1027.88
2018-04-18T06:26:04.482Z,1027.87
2018-04-18T06:27:04.546Z,1027.92
2018-04-18T06:28:04.623Z,1027.92
2018-04-18T06:29:04.682Z,1027.95
2018-04-18T06:30:04.742Z,1027.96
2018-04-18T06:31:04.802Z,1027.98
2018-04-18T06:32:04.870Z,1027.95
2018-04-18T06:33:04.934Z,1027.99
2018-04-18T06:34:05.002Z,1028.01
2018-04-18T06:35:05.054Z,1028.01
2018-04-18T06:36:05.118Z,1027.99
2018-04-18T06:37:05.184Z,1028.07
2018-04-18T06:38:05.246Z,1028.06
2018-04-18T06:39:05.332Z,1028.10
2018-04-18T06:40:05.385Z,1028.06
2018-04-18T06:41:05.438Z,1028.07
2018-04-18T06:42:05.502Z,1028.03
2018-04-18T06:43:05.566Z,1028.08
2018-04-18T06:44:05.638Z,1028.07
2018-04-18T06:45:05.702Z,1028.11
2018-04-18T06:46:05.759Z,1028.10
2018-04-18T06:47:05.825Z,1028.09
2018-04-18T06:48:05.886Z,1028.15
2018-04-18T06:49:05.954Z,1028.13
2018-04-18T06:50:06.019Z,1028.17
2018-04-18T06:51:06.079Z,1028.12
2018-04-18T06:52:06.143Z,1028.15
2018-04-18T06:53:06.207Z,1028.14
2018-04-18T06:54:06.267Z,1028.19
2018-04-18T06:55:06.367Z,1028.14
2018-04-18T06:56:06.399Z,1028.17
2018-04-18T06:57:06.465Z,1028.13
2018-04-18T06:58:06.527Z,1028.17
2018-04-18T06:59:06.595Z,1028.16
2018-04-18T07:00:06.664Z,1028.19
2018-04-18T07:01:06.728Z,1028.18
2018-04-18T07:02:06.789Z,1028.20
2018-04-18T07:03:06.853Z,1028.22
2018-04-18T07:04:06.912Z,1028.74
2018-04-18T07:05:06.984Z,1029.67
2018-04-18T07:06:07.048Z,1030.24
2018-04-18T07:07:07.104Z,1030.32
2018-04-18T07:08:07.172Z,1030.40
2018-04-18T07:09:07.241Z,1030.41
2018-04-18T07:10:07.458Z,1030.40
2018-04-18T07:11:07.392Z,1030.47
2018-04-18T07:12:07.437Z,1030.43
2018-04-18T07:13:07.501Z,1030.40
2018-04-18T07:14:07.568Z,1030.40
2018-04-18T07:15:07.641Z,1030.41
2018-04-18T07:16:07.709Z,1030.29
2018-04-18T07:17:07.774Z,1030.36
2018-04-18T07:18:07.841Z,1030.29
2018-04-18T07:19:07.909Z,1030.26
2018-04-18T07:20:07.985Z,1030.20
2018-04-18T07:21:08.057Z,1030.16
2018-04-18T07:22:08.117Z,1030.14
2018-04-18T07:23:08.189Z,1030.12
2018-04-18T07:24:08.262Z,1030.08
2018-04-18T07:25:08.330Z,1030.04
2018-04-18T07:26:08.414Z,1029.97
2018-04-18T07:27:08.473Z,1029.94
2018-04-18T07:28:08.546Z,1029.92
2018-04-18T07:29:08.617Z,1029.89
2018-04-18T07:30:08.691Z,1029.85
2018-04-18T07:31:08.769Z,1029.81
2018-04-18T07:32:08.842Z,1029.80
2018-04-18T07:33:08.907Z,1029.76
2018-04-18T07:34:08.981Z,1029.76
2018-04-18T07:35:09.053Z,1029.68
2018-04-18T07:36:09.429Z,1029.68
2018-04-18T07:37:09.202Z,1029.67
2018-04-18T07:38:09.274Z,1029.69
2018-04-18T07:39:09.349Z,1029.67
2018-04-18T07:40:09.426Z,1029.68
2018-04-18T07:41:09.518Z,1029.65
2018-04-18T07:42:09.577Z,1029.62
2018-04-18T07:43:09.646Z,1029.63
2018-04-18T07:44:09.721Z,1029.62
2018-04-18T07:45:09.798Z,1029.61
2018-04-18T07:46:09.878Z,1029.60
2018-04-18T07:47:09.954Z,1029.56
2018-04-18T07:48:10.026Z,1029.58
2018-04-18T07:49:10.102Z,1029.59
2018-04-18T07:50:10.174Z,1029.60
2018-04-18T07:51:10.487Z,1029.60
2018-04-18T07:52:10.330Z,1029.58
2018-04-18T07:53:10.409Z,1029.56
2018-04-18T07:54:10.483Z,1029.59
2018-04-18T07:55:10.559Z,1029.59
2018-04-18T07:56:10.647Z,1029.56
2018-04-18T07:57:10.723Z,1029.61
2018-04-18T07:58:10.791Z,1029.60
2018-04-18T07:59:10.871Z,1029.60
2018-04-18T08:00:10.946Z,1029.63
2018-04-18T08:01:11.035Z,1029.98
2018-04-18T08:02:11.111Z,1029.88
2018-04-18T08:03:11.183Z,1029.78
2018-04-18T08:04:11.263Z,1029.73
2018-04-18T08:05:11.348Z,1029.79
2018-04-18T08:06:11.427Z,1029.85
2018-04-18T08:07:11.507Z,1029.85
2018-04-18T08:08:11.583Z,1029.82
2018-04-18T08:09:11.666Z,1029.82
2018-04-18T08:10:11.743Z,1029.87
2018-04-18T08:11:11.831Z,1029.83
2018-04-18T08:12:11.910Z,1029.85
2018-04-18T08:13:11.988Z,1029.83
2018-04-18T08:14:12.067Z,1029.82
2018-04-18T08:15:12.195Z,1029.85
2018-04-18T08:16:12.247Z,1029.78
2018-04-18T08:17:12.320Z,1029.81
2018-04-18T08:18:12.391Z,1029.78
2018-04-18T08:19:12.473Z,1029.79
2018-04-18T08:20:12.551Z,1029.77
2018-04-18T08:21:12.639Z,1029.78
2018-04-18T08:22:12.723Z,1029.76
2018-04-18T08:23:12.795Z,1029.76
2018-04-18T08:24:12.875Z,1029.76
2018-04-18T08:25:12.960Z,1029.71
2018-04-18T08:26:13.043Z,1029.70
2018-04-18T08:27:13.124Z,1029.71
2018-04-18T08:28:13.200Z,1029.69
2018-04-18T08:29:13.284Z,1029.67
2018-04-18T08:30:13.367Z,1029.66
2018-04-18T08:31:13.448Z,1029.70
2018-04-18T08:32:13.528Z,1029.70
2018-04-18T08:33:13.604Z,1029.73
2018-04-18T08:34:13.688Z,1029.69
2018-04-18T08:35:13.764Z,1029.63
2018-04-18T08:36:13.856Z,1029.64
2018-04-18T08:37:13.932Z,1029.66
2018-04-18T08:38:14.004Z,1029.72
2018-04-18T08:39:14.091Z,1029.69
2018-04-18T08:40:14.164Z,1029.65
2018-04-18T08:41:14.395Z,1029.70
2018-04-18T08:42:14.328Z,1029.68
2018-04-18T08:43:14.408Z,1029.69
2018-04-18T08:44:14.486Z,1029.69
2018-04-18T08:45:14.567Z,1029.70
2018-04-18T08:46:14.676Z,1029.69
2018-04-18T08:47:14.736Z,1029.72
2018-04-18T08:48:14.808Z,1029.63
2018-04-18T08:49:14.888Z,1029.69
2018-04-18T08:50:14.964Z,1029.64
2018-04-18T08:51:15.054Z,1029.50
2018-04-18T08:52:15.137Z,1029.33
2018-04-18T08:53:15.208Z,1029.28
2018-04-18T08:54:15.284Z,1029.28
2018-04-18T08:55:15.365Z,1029.25
2018-04-18T08:56:15.448Z,1029.23
2018-04-18T08:57:15.534Z,1029.26
2018-04-18T08:58:15.604Z,1029.23
2018-04-18T08:59:15.688Z,1029.27
2018-04-18T09:00:15.764Z,1029.39
2018-04-18T09:01:15.851Z,1029.43
2018-04-18T09:02:15.928Z,1029.38
2018-04-18T09:03:15.999Z,1029.32
2018-04-18T09:04:16.083Z,1029.29
2018-04-18T09:05:16.161Z,1029.28
2018-04-18T09:06:16.256Z,1029.19
2018-04-18T09:07:16.319Z,1029.16
2018-04-18T09:08:16.400Z,1029.17
2018-04-18T09:09:16.480Z,1029.10
2018-04-18T09:10:16.563Z,1029.11
2018-04-18T09:11:16.643Z,1029.11
2018-04-18T09:12:16.723Z,1029.11
2018-04-18T09:13:16.796Z,1029.06
2018-04-18T09:14:16.876Z,1029.01
2018-04-18T09:15:16.956Z,1029.01
2018-04-18T09:16:17.040Z,1028.94
2018-04-18T09:17:17.120Z,1028.92
2018-04-18T09:18:17.196Z,1028.87
2018-04-18T09:19:17.269Z,1028.89
2018-04-18T09:20:17.349Z,1028.86
2018-04-18T09:21:17.448Z,1028.87
2018-04-18T09:22:17.508Z,1028.86
2018-04-18T09:23:17.589Z,1028.88
2018-04-18T09:24:17.664Z,1028.86
2018-04-18T09:25:17.744Z,1028.82
2018-04-18T09:26:17.828Z,1028.82
2018-04-18T09:27:17.912Z,1028.82
2018-04-18T09:28:17.980Z,1028.83
2018-04-18T09:29:18.060Z,1028.81
2018-04-18T09:30:18.137Z,1028.78
2018-04-18T09:31:18.248Z,1028.83
2018-04-18T09:32:18.300Z,1028.82
2018-04-18T09:33:18.375Z,1028.79
2018-04-18T09:34:18.452Z,1028.78
2018-04-18T09:35:18.528Z,1028.77
2018-04-18T09:36:18.616Z,1028.76
2018-04-18T09:37:18.692Z,1028.82
2018-04-18T09:38:18.764Z,1028.83
2018-04-18T09:39:18.846Z,1028.80
2018-04-18T09:40:18.920Z,1028.76
2018-04-18T09:41:19.004Z,1028.76
2018-04-18T09:42:19.091Z,1028.75
2018-04-18T09:43:19.157Z,1028.78
2018-04-18T09:44:19.237Z,1028.72
2018-04-18T09:45:19.308Z,1028.73
2018-04-18T09:46:19.436Z,1028.69
2018-04-18T09:47:19.465Z,1028.72
2018-04-18T09:48:19.541Z,1028.74
2018-04-18T09:49:19.622Z,1028.67
2018-04-18T09:50:19.698Z,1028.65
2018-04-18T09:51:19.782Z,1028.66
2018-04-18T09:52:19.859Z,1028.67
2018-04-18T09:53:19.930Z,1028.65
2018-04-18T09:54:20.006Z,1028.65
2018-04-18T09:55:20.082Z,1028.66
2018-04-18T09:56:20.314Z,1028.63
2018-04-18T09:57:20.238Z,1028.64
2018-04-18T09:58:20.325Z,1028.61
2018-04-18T09:59:20.389Z,1028.60
2018-04-18T10:00:20.469Z,1028.56
2018-04-18T10:01:20.554Z,1028.59
2018-04-18T10:02:20.630Z,1028.55
2018-04-18T10:03:20.698Z,1028.53
2018-04-18T10:04:20.778Z,1028.49
2018-04-18T10:05:20.854Z,1028.56
2018-04-18T10:06:20.939Z,1028.50
2018-04-18T10:07:21.014Z,1028.49
2018-04-18T10:08:21.082Z,1028.50
2018-04-18T10:09:21.162Z,1028.49
2018-04-18T10:10:21.282Z,1028.49
2018-04-18T10:11:21.326Z,1028.44
2018-04-18T10:12:21.392Z,1028.42
2018-04-18T10:13:21.467Z,1028.41
2018-04-18T10:14:21.543Z,1028.39
2018-04-18T10:15:21.618Z,1028.39
2018-04-18T10:16:21.702Z,1028.36
2018-04-18T10:17:21.778Z,1028.33
2018-04-18T10:18:21.847Z,1028.33
2018-04-18T10:19:21.922Z,1028.31
2018-04-18T10:20:21.999Z,1028.30
2018-04-18T10:21:22.191Z,1028.28
2018-04-18T10:22:22.151Z,1028.26
2018-04-18T10:23:22.226Z,1028.29
2018-04-18T10:24:22.311Z,1028.28
2018-04-18T10:25:22.383Z,1028.26
2018-04-18T10:26:22.459Z,1028.29
2018-04-18T10:27:22.535Z,1028.27
2018-04-18T10:28:22.607Z,1028.29
2018-04-18T10:29:22.679Z,1028.28
2018-04-18T10:30:22.755Z,1028.31
2018-04-18T10:31:22.839Z,1028.29
2018-04-18T10:32:22.915Z,1028.29
2018-04-18T10:33:22.983Z,1028.31
2018-04-18T10:34:23.055Z,1028.30
2018-04-18T10:35:23.131Z,1028.26
2018-04-18T10:36:23.232Z,1028.28
2018-04-18T10:37:23.282Z,1028.27
2018-04-18T10:38:23.363Z,1028.23
2018-04-18T10:39:23.431Z,1028.24
2018-04-18T10:40:23.519Z,1028.24
2018-04-18T10:41:23.590Z,1028.22
2018-04-18T10:42:23.663Z,1028.22
2018-04-18T10:43:23.749Z,1028.20
2018-04-18T10:44:23.807Z,1028.23
2018-04-18T10:45:23.882Z,1028.19
2018-04-18T10:46:23.963Z,1028.18
2018-04-18T10:47:24.039Z,1028.21
2018-04-18T10:48:24.107Z,1028.22
2018-04-18T10:49:24.183Z,1028.22
2018-04-18T10:50:24.255Z,1028.21
2018-04-18T10:51:24.435Z,1028.19
2018-04-18T10:52:24.407Z,1028.23
2018-04-18T10:53:24.480Z,1028.24
2018-04-18T10:54:24.552Z,1028.20
2018-04-18T10:55:24.630Z,1028.17
2018-04-18T10:56:24.722Z,1028.15
2018-04-18T10:57:24.788Z,1028.15
2018-04-18T10:58:24.852Z,1028.14
2018-04-18T10:59:24.928Z,1028.15
2018-04-18T11:00:25.005Z,1028.14
2018-04-18T11:01:25.096Z,1028.12
2018-04-18T11:02:25.149Z,1028.13
2018-04-18T11:03:25.224Z,1028.10
2018-04-18T11:04:25.333Z,1028.12
2018-04-18T11:05:25.377Z,1028.10
2018-04-18T11:06:25.453Z,1028.10
2018-04-18T11:07:25.537Z,1028.07
2018-04-18T11:08:25.597Z,1028.11
2018-04-18T11:09:25.698Z,1028.06
2018-04-18T11:10:25.745Z,1028.03
2018-04-18T11:11:25.833Z,1028.05
2018-04-18T11:12:25.901Z,1028.03
2018-04-18T11:13:25.965Z,1028.00
2018-04-18T11:14:26.041Z,1028.04
2018-04-18T11:15:26.117Z,1028.01
2018-04-18T11:16:26.513Z,1027.98
2018-04-18T11:17:26.260Z,1027.98
2018-04-18T11:18:26.337Z,1027.98
2018-04-18T11:19:26.409Z,1027.93
2018-04-18T11:20:26.485Z,1027.93
2018-04-18T11:21:26.573Z,1027.92
2018-04-18T11:22:26.637Z,1027.89
2018-04-18T11:23:26.705Z,1027.93
2018-04-18T11:24:26.786Z,1027.92
2018-04-18T11:25:26.859Z,1027.91
2018-04-18T11:26:26.937Z,1027.88
2018-04-18T11:27:27.012Z,1027.91
2018-04-18T11:28:27.073Z,1027.86
2018-04-18T11:29:27.145Z,1027.86
2018-04-18T11:30:27.228Z,1027.87
2018-04-18T11:31:27.454Z,1027.88
2018-04-18T11:32:27.373Z,1027.87
2018-04-18T11:33:27.451Z,1027.81
2018-04-18T11:34:27.518Z,1027.83
2018-04-18T11:35:27.590Z,1027.79
2018-04-18T11:36:27.740Z,1027.76
2018-04-18T11:37:27.750Z,1027.74
2018-04-18T11:38:27.814Z,1027.70
2018-04-18T11:39:27.887Z,1027.72
2018-04-18T11:40:27.970Z,1027.67
2018-04-18T11:41:28.043Z,1027.69
2018-04-18T11:42:28.123Z,1027.72
2018-04-18T11:43:28.187Z,1027.70
2018-04-18T11:44:28.263Z,1027.71
2018-04-18T11:45:28.387Z,1027.68
2018-04-18T11:46:28.431Z,1027.65
2018-04-18T11:47:28.488Z,1027.68
2018-04-18T11:48:28.547Z,1027.64
2018-04-18T11:49:28.623Z,1027.64
2018-04-18T11:50:28.715Z,1027.62
2018-04-18T11:51:28.799Z,1027.60
2018-04-18T11:52:28.895Z,1027.62
2018-04-18T11:53:28.935Z,1027.68
2018-04-18T11:54:29.015Z,1027.62
2018-04-18T11:55:29.067Z,1027.64
2018-04-18T11:56:29.447Z,1027.63
2018-04-18T11:57:29.228Z,1027.61
2018-04-18T11:58:29.286Z,1027.62
2018-04-18T11:59:29.363Z,1027.62
2018-04-18T12:00:29.435Z,1027.60
2018-04-18T12:01:29.515Z,1027.61
2018-04-18T12:02:29.603Z,1027.60
2018-04-18T12:03:29.659Z,1027.59
2018-04-18T12:04:29.731Z,1027.61
2018-04-18T12:05:29.809Z,1027.58
2018-04-18T12:06:29.884Z,1027.54